createdAt,value
2023-04-03T00:05:47.400Z,17.70
2023-04-03T00:15:52.760Z,17.70
2023-04-03T00:25:58.111Z,17.72
2023-04-03T00:36:03.742Z,17.73
2023-04-03T00:46:09.789Z,17.73
2023-04-03T00:56:14.513Z,17.72
2023-04-03T01:06:19.888Z,17.72
2023-04-03T01:16:25.683Z,17.75
2023-04-03T01:26:31.769Z,17.76
2023-04-03T01:36:37.128Z,17.76
2023-04-03T01:46:42.720Z,17.72
2023-04-03T01:56:48.330Z,17.72
2023-04-03T02:06:54.071Z,17.70
2023-04-03T02:16:59.773Z,17.67
2023-04-03T02:27:05.492Z,17.67
2023-04-03T02:37:10.801Z,17.63
2023-04-03T02:47:16.305Z,17.63
2023-04-03T02:57:21.974Z,17.60
2023-04-03T03:07:27.825Z,17.58
2023-04-03T03:17:33.422Z,17.58
2023-04-03T03:27:38.398Z,17.56
2023-04-03T03:37:44.585Z,17.54
2023-04-03T03:47:50.338Z,17.54
2023-04-03T03:57:56.021Z,17.52
2023-04-03T04:08:01.484Z,17.52
2023-04-03T04:18:07.580Z,17.48
2023-04-03T04:28:13.664Z,17.48
2023-04-03T04:38:20.097Z,17.48
2023-04-03T04:48:26.164Z,17.48
2023-04-03T04:58:32.047Z,17.48
2023-04-03T05:08:38.291Z,17.48
2023-04-03T05:18:44.670Z,17.50
2023-04-03T05:28:51.046Z,17.50
2023-04-03T05:38:57.385Z,15.81
2023-04-03T05:49:00.700Z,15.81
2023-04-03T05:59:06.367Z,10.80
2023-04-03T06:09:12.106Z,9.72
2023-04-03T06:19:18.340Z,9.77
2023-04-03T06:29:26.436Z,14.38
2023-04-03T06:39:33.205Z,14.38
2023-04-03T06:49:40.041Z,15.59
2023-04-03T06:59:46.960Z,15.88
2023-04-03T07:09:53.528Z,16.07
2023-04-03T07:20:00.523Z,16.27
2023-04-03T07:30:07.080Z,16.27
2023-04-03T07:40:13.349Z,16.34
2023-04-03T07:50:19.423Z,16.48
2023-04-03T08:00:25.486Z,16.67
2023-04-03T08:10:31.908Z,16.67
2023-04-03T08:20:38.162Z,16.76
2023-04-03T08:30:44.705Z,16.97
2023-04-03T08:40:50.935Z,16.97
2023-04-03T08:50:57.071Z,17.38
2023-04-03T09:01:03.301Z,17.48
2023-04-03T09:11:09.714Z,17.52
2023-04-03T09:21:16.120Z,17.50
2023-04-03T09:31:22.582Z,17.50
2023-04-03T09:41:29.511Z,17.98
2023-04-03T09:51:36.072Z,17.98
2023-04-03T10:01:42.729Z,19.95
2023-04-03T10:11:49.507Z,19.03
2023-04-03T10:21:55.922Z,18.52
2023-04-03T10:32:02.047Z,18.42
2023-04-03T10:42:15.872Z,18.41
2023-04-03T10:52:20.063Z,18.70
2023-04-03T11:02:29.361Z,18.67
2023-04-03T11:12:36.916Z,18.67
2023-04-03T11:22:43.032Z,18.68
2023-04-03T11:32:49.145Z,18.55
2023-04-03T11:42:55.337Z,18.55
2023-04-03T11:53:01.475Z,18.59
2023-04-03T12:03:07.689Z,18.59
2023-04-03T12:13:14.282Z,18.44
2023-04-03T12:23:20.312Z,18.35
2023-04-03T12:33:26.352Z,18.35
2023-04-03T12:43:33.372Z,18.36
2023-04-03T12:53:39.773Z,18.40
2023-04-03T13:03:46.349Z,18.40
2023-04-03T13:13:52.773Z,18.32
2023-04-03T13:24:11.546Z,18.27
2023-04-03T13:34:09.584Z,18.25
2023-04-03T13:44:15.400Z,18.27
2023-04-03T13:54:21.033Z,18.20
2023-04-03T14:04:26.794Z,18.22
2023-04-03T14:14:33.074Z,18.21
2023-04-03T14:24:39.748Z,18.18
2023-04-03T14:34:45.692Z,18.18
2023-04-03T14:44:51.602Z,18.18
2023-04-03T14:54:57.321Z,18.10
2023-04-03T15:05:03.621Z,18.03
2023-04-03T15:15:09.606Z,18.00
2023-04-03T15:25:15.617Z,18.00
2023-04-03T15:35:22.083Z,17.94
2023-04-03T15:45:28.514Z,17.90
2023-04-03T15:55:34.814Z,17.86
2023-04-03T16:05:40.941Z,17.86
2023-04-03T16:15:47.355Z,17.81
2023-04-03T16:25:54.670Z,17.78
2023-04-03T16:36:01.316Z,17.76
2023-04-03T16:46:08.820Z,17.76
2023-04-03T16:56:14.384Z,17.73
2023-04-03T17:06:21.123Z,17.73
2023-04-03T17:16:26.663Z,17.71
2023-04-03T17:26:32.734Z,17.70
2023-04-03T17:36:41.007Z,17.68
2023-04-03T17:46:46.757Z,17.70
2023-04-03T17:56:53.375Z,17.70
2023-04-03T18:07:00.511Z,17.67
2023-04-03T18:17:06.339Z,17.67
2023-04-03T18:27:12.258Z,17.66
2023-04-03T18:37:17.513Z,17.66
2023-04-03T18:47:22.953Z,17.67
2023-04-03T18:57:31.041Z,17.67
2023-04-03T19:07:36.444Z,17.70
2023-04-03T19:17:46.911Z,17.70
2023-04-03T19:27:52.601Z,16.72
2023-04-03T19:38:00.382Z,16.32
2023-04-03T19:48:07.757Z,16.70
2023-04-03T19:58:14.670Z,16.81
2023-04-03T20:08:21.119Z,16.95
2023-04-03T20:18:28.089Z,17.03
2023-04-03T20:29:54.563Z,17.17
2023-04-03T20:40:02.837Z,17.17
2023-04-03T20:50:10.366Z,17.15
2023-04-03T21:00:21.624Z,17.15
2023-04-03T21:10:30.072Z,17.17
2023-04-03T21:20:38.958Z,17.16
2023-04-03T21:30:45.529Z,17.23
2023-04-03T21:40:51.669Z,17.25
2023-04-03T21:50:57.488Z,17.25
2023-04-03T22:01:03.172Z,17.25
2023-04-03T22:11:08.769Z,17.28
2023-04-03T22:21:14.941Z,17.30
2023-04-03T22:31:21.328Z,17.32
2023-04-03T22:41:27.442Z,17.33
2023-04-03T22:51:33.829Z,17.40
2023-04-03T23:01:39.660Z,17.40
2023-04-03T23:11:46.441Z,17.45
2023-04-03T23:21:52.796Z,17.45
2023-04-03T23:31:58.849Z,17.45
2023-04-03T23:42:05.028Z,17.48
2023-04-03T23:52:11.341Z,17.48
